Flight Track Log - Related Links

Times and Time Zones

All times are in EDT time to prevent confusion due to time zone crossing. See the N508QS flight status page for this flight to view local times or setup timezone preferences in your user account.

Time Position Orientation Groundspeed Altitude Reporting Facility
EDT Latitude Longitude Course Direction KTS MPH feet Rate Location/Type
Sun 01:53:50 PM 40.8167 -74.1500 201° Southwest 210 242 1,700  Level New York TRACON
Sun 01:54:50 PM 40.8167 -74.2333 270° West 251 289 5,200 2,550 Climbing New York TRACON
Sun 01:55:50 PM 40.7500 -74.2833 210° Southwest 264 304 6,800 2,950 Climbing New York TRACON
Sun 01:56:50 PM 40.6833 -74.2667 169° South 272 313 11,100 3,550 Climbing New York TRACON
Sun 01:57:50 PM 40.6000 -74.2500 171° South 333 383 13,900 2,550 Climbing New York TRACON
Sun 01:58:50 PM 40.4833 -74.2167 168° South 405 466 16,200 1,215 Climbing New York TRACON
Sun 01:59:00 PM 40.1512 -74.1994 201° Southwest  Level FlightAware Approximate
Sun 02:00:28 PM 40.3169 -74.1681 167° South 436 502 17,100  Level New York Center
Sun 02:01:28 PM 40.2014 -74.1950 190° South 415 478 19,000 2,367 Climbing New York Center
Sun 02:02:55 PM 40.0122 -74.2533 193° South 454 522 22,900 2,612 Climbing Washington Center
Sun 02:03:55 PM 39.9069 -74.3472 214° Southwest 454 522 25,400 2,182 Climbing Washington Center
Sun 02:04:56 PM 39.8142 -74.4328 215° Southwest 454 522 27,300 1,934 Climbing Washington Center
Sun 02:05:56 PM 39.7175 -74.5583 225° Southwest 476 548 29,300 2,182 Climbing Washington Center
Sun 02:06:57 PM 39.6225 -74.6864 226° Southwest 487 560 31,700 2,550 Climbing Washington Center
Sun 02:07:56 PM 39.5297 -74.8114 226° Southwest 487 560 34,400 2,672 Climbing Washington Center
Sun 02:08:56 PM 39.4386 -74.9306 225° Southwest 487 560 37,000 2,430 Climbing Washington Center
Sun 02:09:57 PM 39.3433 -75.0494 224° Southwest 481 554 39,300 2,033 Climbing Washington Center
Sun 02:10:57 PM 39.2292 -75.1361 210° Southwest 476 548 41,100 1,550 Climbing Washington Center
Sun 02:11:57 PM 39.1128 -75.2144 208° Southwest 476 548 42,400 966 Climbing Washington Center
Sun 02:12:55 PM 38.9942 -75.2925 207° Southwest 482 555 43,000 305 Climbing Washington Center
Sun 02:13:55 PM 38.8672 -75.3756 207° Southwest 493 567 43,000  Level Washington Center
Sun 02:14:56 PM 38.7403 -75.4586 207° Southwest 506 582 43,000  Level Washington Center
Sun 02:15:56 PM 38.6153 -75.5358 206° Southwest 512 589 43,000  Level Washington Center
Sun 02:16:57 PM 38.4922 -75.6183 208° Southwest 507 583 43,000  Level Washington Center
Sun 02:17:55 PM 38.3711 -75.6975 207° Southwest 502 578 43,000  Level Washington Center
Sun 02:18:56 PM 38.2333 -75.7847 206° Southwest 502 578 43,000  Level Washington Center
Sun 02:19:56 PM 38.1122 -75.8636 207° Southwest 497 572 43,000 807 Level Washington Center
Sun 02:20:55 PM 37.9933 -75.9394 207° Southwest 497 572 44,600 1,412 Climbing Washington Center
Sun 02:21:55 PM 37.8825 -76.0100 207° Southwest 476 548 45,800 793 Climbing Washington Center
Sun 02:22:56 PM 37.7697 -76.0936 210° Southwest 468 539 46,200 248 Climbing Washington Center
Sun 02:23:56 PM 37.6775 -76.1533 207° Southwest 468 539 46,300 397 Climbing Washington Center
Sun 02:24:57 PM 37.5417 -76.2256 203° Southwest 474 545 47,000 347 Climbing Washington Center
Sun 02:25:57 PM 37.4222 -76.3006 207° Southwest 474 545 47,000  Level Washington Center
Sun 02:26:55 PM 37.3031 -76.3750 206° Southwest 474 545 47,000  Level Washington Center
Sun 02:27:56 PM 37.1731 -76.4572 207° Southwest 474 545 47,000  Level Washington Center
Sun 02:28:56 PM 37.0536 -76.5339 207° Southwest 474 545 47,000  Level Washington Center
Sun 02:29:56 PM 36.9342 -76.6078 206° Southwest 474 545 47,000  Level Washington Center
Sun 02:30:57 PM 36.8125 -76.6842 207° Southwest 474 545 47,000  Level Washington Center
Sun 02:31:57 PM 36.7158 -76.7425 206° Southwest 474 545 47,000  Level Washington Center
Sun 02:32:55 PM 36.5711 -76.8308 206° Southwest 474 545 47,000  Level Washington Center
Sun 02:33:56 PM 36.4514 -76.9064 207° Southwest 474 545 47,000  Level Washington Center
Sun 02:34:56 PM 36.3422 -76.9742 207° Southwest 479 551 47,000  Level Washington Center
Sun 02:35:57 PM 36.2222 -77.0467 206° Southwest 479 551 47,000  Level Washington Center
Sun 02:36:55 PM 36.1006 -77.1189 206° Southwest 484 557 47,000  Level Washington Center
Sun 02:37:56 PM 35.9847 -77.1911 207° Southwest 474 545 47,000  Level Washington Center
Sun 02:38:55 PM 35.8647 -77.2631 206° Southwest 474 545 47,000  Level Washington Center
Sun 02:39:56 PM 35.7344 -77.3397 206° Southwest 469 540 47,000  Level Washington Center
Sun 02:40:57 PM 35.6144 -77.4111 206° Southwest 469 540 47,000  Level Washington Center
Sun 02:41:55 PM 35.4942 -77.4850 207° Southwest 474 545 47,000  Level Washington Center
Sun 02:42:56 PM 35.3722 -77.5561 205° Southwest 474 545 47,000  Level Washington Center
Sun 02:43:57 PM 35.2725 -77.6553 219° Southwest 474 545 47,000  Level Washington Center
Sun 02:44:55 PM 35.1725 -77.7594 220° Southwest 474 545 47,000  Level Washington Center
Sun 02:45:56 PM 35.0703 -77.8658 220° Southwest 480 552 47,000  Level Washington Center
Sun 02:46:56 PM 34.9725 -77.9694 221° Southwest 480 552 47,000  Level Washington Center
Sun 02:47:55 PM 34.8700 -78.0728 220° Southwest 480 552 47,000  Level Washington Center
Sun 02:49:56 PM 34.6742 -78.2831 221° Southwest 475 547 47,000  Level Jacksonville Center
Sun 02:50:56 PM 34.5736 -78.3842 220° Southwest 470 541 47,000  Level Jacksonville Center
Sun 02:51:56 PM 34.4750 -78.4850 220° Southwest 470 541 47,000  Level Jacksonville Center
Sun 02:52:56 PM 34.3719 -78.5858 219° Southwest 470 541 47,000  Level Jacksonville Center
Sun 02:53:56 PM 34.2714 -78.6889 220° Southwest 475 547 47,000  Level Jacksonville Center
Sun 02:54:56 PM 34.1703 -78.7892 219° Southwest 475 547 47,000 -50 Level Jacksonville Center
Sun 02:55:56 PM 34.0672 -78.8917 219° Southwest 480 552 46,900  Descending Jacksonville Center
Sun 02:56:56 PM 33.9725 -78.9961 222° Southwest 480 552 47,000 50 Climbing Jacksonville Center
Sun 02:57:56 PM 33.8711 -79.1008 221° Southwest 480 552 47,000  Level Jacksonville Center
Sun 02:58:56 PM 33.7764 -79.2047 222° Southwest 474 545 47,000 -50 Level Jacksonville Center
Sun 02:59:56 PM 33.6911 -79.2956 222° Southwest 474 545 46,900  Descending Jacksonville Center
Sun 03:00:56 PM 33.5919 -79.4019 222° Southwest 468 539 47,000 50 Climbing Jacksonville Center
Sun 03:01:56 PM 33.4947 -79.5078 222° Southwest 475 547 47,000  Level Jacksonville Center
Sun 03:02:56 PM 33.3953 -79.6111 221° Southwest 480 552 47,000  Level Jacksonville Center
Sun 03:03:56 PM 33.2956 -79.7167 222° Southwest 480 552 47,000  Level Jacksonville Center
Sun 03:04:56 PM 33.2000 -79.8194 222° Southwest 475 547 47,000  Level Jacksonville Center
Sun 03:05:56 PM 33.1003 -79.9219 221° Southwest 480 552 47,000  Level Jacksonville Center
Sun 03:06:56 PM 32.9983 -80.0219 219° Southwest 480 552 47,000  Level Jacksonville Center
Sun 03:07:56 PM 32.8961 -80.1267 221° Southwest 480 552 47,000  Level Jacksonville Center
Sun 03:08:56 PM 32.8025 -80.2333 224° Southwest 480 552 47,000 -50 Level Jacksonville Center
Sun 03:09:56 PM 32.7064 -80.3350 222° Southwest 475 547 46,900  Descending Jacksonville Center
Sun 03:10:56 PM 32.6103 -80.4361 222° Southwest 475 547 47,000 50 Climbing Jacksonville Center
Sun 03:11:56 PM 32.5100 -80.5400 221° Southwest 475 547 47,000  Level Jacksonville Center
Sun 03:12:56 PM 32.4094 -80.6411 220° Southwest 481 554 47,000  Level Jacksonville Center
Sun 03:13:56 PM 32.3133 -80.7442 222° Southwest 481 554 47,000  Level Jacksonville Center
Sun 03:14:56 PM 32.2106 -80.8522 222° Southwest 467 537 47,000  Level Jacksonville Center
Sun 03:15:56 PM 32.1097 -80.9475 219° Southwest 473 544 47,000  Level Jacksonville Center
Sun 03:16:56 PM 32.0172 -81.0403 220° Southwest 479 551 47,000  Level Jacksonville Center
Sun 03:17:56 PM 31.9083 -81.1525 221° Southwest 478 550 47,000  Level Jacksonville Center
Sun 03:18:56 PM 31.8114 -81.2522 221° Southwest 471 542 47,000 -550 Level Jacksonville Center
Sun 03:19:56 PM 31.7269 -81.3392 221° Southwest 466 536 45,900 -1,400 Descending Jacksonville Center
Sun 03:20:56 PM 31.6217 -81.4483 221° Southwest 461 531 44,200 -1,550 Descending Jacksonville Center
Sun 03:21:56 PM 31.5417 -81.5617 230° Southwest 454 522 42,800 -1,450 Descending Jacksonville Center
Sun 03:22:56 PM 31.4631 -81.6503 224° Southwest 444 511 41,300 -1,400 Descending Jacksonville Center
Sun 03:23:56 PM 31.3617 -81.7564 222° Southwest 450 518 40,000 -950 Descending Jacksonville Center
Sun 03:24:56 PM 31.2728 -81.8450 220° Southwest 455 524 39,400 -1,000 Descending Jacksonville Center
Sun 03:25:56 PM 31.1733 -81.9358 218° Southwest 460 529 38,000 -700 Descending Jacksonville Center
Sun 03:26:56 PM 31.0717 -82.0339 220° Southwest 471 542 38,000 -50 Level Jacksonville Center
Sun 03:27:56 PM 30.9719 -82.1269 219° Southwest 471 542 37,900  Descending Jacksonville Center
Sun 03:28:56 PM 30.9311 -82.2581 250° West 443 510 38,000 -50 Climbing Jacksonville Center
Sun 03:29:56 PM 30.9169 -82.3961 263° West 423 487 37,800 -1,800 Descending Jacksonville Center
Sun 03:30:56 PM 30.9028 -82.5367 263° West 435 501 34,400 -3,850 Descending Jacksonville Center
Sun 03:31:56 PM 30.8281 -82.6458 231° Southwest 417 480 30,100 -3,850 Descending Jacksonville Center
Sun 03:32:56 PM 30.6922 -82.6511 182° South 402 463 26,700 -3,050 Descending Jacksonville Center
Sun 03:33:56 PM 30.5583 -82.5814 156° South 393 452 24,000 -1,850 Descending Jacksonville Center
Sun 03:34:56 PM 30.4414 -82.5408 163° South 414 476 23,000 -1,450 Descending Jacksonville Center
Sun 03:35:56 PM 30.3244 -82.5100 167° South 431 496 21,100 -1,900 Descending Jacksonville Center
Sun 03:36:56 PM 30.2094 -82.4817 168° South 431 496 19,200 -1,881 Descending Jacksonville Center
Sun 03:37:54 PM 30.0967 -82.4581 170° South 402 463 17,400 -1,750 Descending Jacksonville Center
Sun 03:38:56 PM 30.0025 -82.4297 165° South 413 475 15,700 -1,898 Descending Jacksonville Center
Sun 03:39:32 PM 29.9253 -82.4133 170° South 391 450 14,300 -2,000 Descending Jacksonville Center
Sun 03:39:56 PM 29.8961 -82.4039 164° South 402 463 13,700 -2,093 Descending Jacksonville Center
Sun 03:40:15 PM 29.8500 -82.3919 167° South 383 441 12,800 -2,000 Descending Jacksonville Center
Sun 03:40:56 PM 29.7958 -82.3781 167° South 386 444 11,700 -1,545 Descending Jacksonville Center
Sun 03:41:21 PM 29.7436 -82.3686 171° South 321 369 11,100 -1,200 Descending Jacksonville Center
Sun 03:41:56 PM 29.7122 -82.3544 159° South 351 404 10,500 -1,672 Descending Jacksonville Center
Sun 03:42:22 PM 29.6642 -82.3428 168° South 291 335 9,400 -1,900 Descending Jacksonville Center
Sun 03:42:56 PM 29.6328 -82.3311 162° South 315 362 8,600 -1,745 Descending Jacksonville Center
Sun 03:43:17 PM 29.5950 -82.3217 168° South 289 333 7,800 -2,000 Descending Jacksonville Center
Sun 03:43:56 PM 29.5575 -82.3028 156° South 297 342 6,600 -1,869 Descending Jacksonville Center
Sun 03:44:18 PM 29.5219 -82.2958 170° South 278 320 5,900 -1,700 Descending Jacksonville Center
Sun 03:44:56 PM 29.4822 -82.2819 163° South 286 329 4,900 -1,747 Descending Jacksonville Center
Sun 03:45:37 PM 29.4258 -82.2678 168° South 269 310 3,600 -1,700 Descending Jacksonville Center
Sun 03:45:56 PM 29.4111 -82.2631 164° South 275 316 3,200 -590 Descending Jacksonville Center
Sun 03:46:38 PM 29.3547 -82.2517 170° South 231 266 3,000 -300 Descending Jacksonville Center
Sun 03:46:56 PM 29.3464 -82.2444 143° Southeast 260 299 2,900 -590 Descending Jacksonville Center
Sun 03:47:39 PM 29.2942 -82.2331 169° South 221 254 2,400 -735 Descending Jacksonville Center
Sun 03:48:34 PM 29.2481 -82.2239 170° South 171 197 1,700 -836 Descending Jacksonville Center
Sun 03:49:41 PM 29.2064 -82.2242 180° South 127 146 700 -896 Descending Jacksonville Center

Login

Don't have an account? Register now (free) for customized features, flight alerts, and more!